createdAt,value
2022-08-03T00:03:58.568Z,7.65
2022-08-03T00:09:27.269Z,7.30
2022-08-03T00:15:10.478Z,15.68
2022-08-03T00:20:41.857Z,9.20
2022-08-03T00:26:11.465Z,11.07
2022-08-03T00:31:52.208Z,8.73
2022-08-03T00:37:24.056Z,11.68
2022-08-03T00:43:10.717Z,13.02
2022-08-03T00:48:40.137Z,8.00
2022-08-03T00:54:11.035Z,9.15
2022-08-03T00:59:39.947Z,10.13
2022-08-03T01:05:10.754Z,10.30
2022-08-03T01:10:54.306Z,8.25
2022-08-03T01:16:37.091Z,8.93
2022-08-03T01:22:19.301Z,11.00
2022-08-03T01:28:07.613Z,10.68
2022-08-03T01:33:40.466Z,27.23
2022-08-03T01:39:11.533Z,32.70
2022-08-03T01:44:42.870Z,32.10
2022-08-03T01:50:15.344Z,30.25
2022-08-03T01:55:53.574Z,66.85
2022-08-03T02:01:23.749Z,82.45
2022-08-03T02:07:01.911Z,53.90
2022-08-03T02:12:34.411Z,35.38
2022-08-03T02:18:06.314Z,17.50
2022-08-03T02:23:36.465Z,11.55
2022-08-03T02:29:12.494Z,10.20
2022-08-03T02:34:43.191Z,14.40
2022-08-03T02:40:14.996Z,10.05
2022-08-03T02:45:46.970Z,14.40
2022-08-03T02:51:18.191Z,14.68
2022-08-03T02:56:49.732Z,22.27
2022-08-03T03:02:20.082Z,13.38
2022-08-03T03:07:51.667Z,17.83
2022-08-03T03:13:23.449Z,20.23
2022-08-03T03:18:52.707Z,12.50
2022-08-03T03:24:22.810Z,32.33
2022-08-03T03:29:53.612Z,15.27
2022-08-03T03:35:22.707Z,14.90
2022-08-03T03:40:52.372Z,16.58
2022-08-03T03:46:22.868Z,18.77
2022-08-03T03:51:54.998Z,14.82
2022-08-03T03:57:24.163Z,13.15
2022-08-03T04:02:54.428Z,14.65
2022-08-03T04:08:40.599Z,15.05
2022-08-03T04:14:13.426Z,16.35
2022-08-03T04:19:46.387Z,13.63
2022-08-03T04:25:19.557Z,19.65
2022-08-03T04:30:50.989Z,23.98
2022-08-03T04:36:24.723Z,23.65
2022-08-03T04:42:06.936Z,14.93
2022-08-03T04:47:39.180Z,15.00
2022-08-03T04:53:09.880Z,14.48
2022-08-03T04:58:39.235Z,12.18
2022-08-03T05:09:50.081Z,28.23
2022-08-03T05:15:22.138Z,33.97
2022-08-03T05:20:51.812Z,18.35
2022-08-03T05:26:22.763Z,24.23
2022-08-03T05:31:52.345Z,15.27
2022-08-03T05:37:21.603Z,33.50
2022-08-03T05:42:52.609Z,21.10
2022-08-03T05:48:22.477Z,30.00
2022-08-03T05:53:51.416Z,31.95
2022-08-03T05:59:37.517Z,31.80
2022-08-03T06:05:08.704Z,34.13
2022-08-03T06:10:38.531Z,26.88
2022-08-03T06:16:09.688Z,21.98
2022-08-03T06:21:38.876Z,20.27
2022-08-03T06:27:09.501Z,32.50
2022-08-03T06:32:39.896Z,16.88
2022-08-03T06:38:09.021Z,16.98
2022-08-03T06:44:03.097Z,17.40
2022-08-03T06:49:28.896Z,18.50
2022-08-03T06:54:58.416Z,36.90
2022-08-03T07:00:28.120Z,19.40
2022-08-03T07:05:58.300Z,27.23
2022-08-03T07:11:26.852Z,23.25
2022-08-03T07:16:56.226Z,27.15
2022-08-03T07:22:26.652Z,32.42
2022-08-03T07:27:56.354Z,23.05
2022-08-03T07:33:24.916Z,23.70
2022-08-03T07:38:55.762Z,19.13
2022-08-03T07:44:24.873Z,26.45
2022-08-03T07:49:54.219Z,26.08
2022-08-03T07:55:26.343Z,21.77
2022-08-03T08:00:55.295Z,14.85
2022-08-03T08:06:24.040Z,12.68
2022-08-03T08:11:55.322Z,18.95
2022-08-03T08:17:24.103Z,16.00
2022-08-03T08:22:53.036Z,17.33
2022-08-03T08:28:32.699Z,16.55
2022-08-03T08:34:05.612Z,24.15
2022-08-03T08:39:35.005Z,19.92
2022-08-03T08:45:08.502Z,21.90
2022-08-03T08:50:39.934Z,22.08
2022-08-03T08:56:10.434Z,27.00
2022-08-03T09:01:40.455Z,19.13
2022-08-03T09:07:20.090Z,20.17
2022-08-03T09:12:57.953Z,26.50
2022-08-03T09:18:32.422Z,22.17
2022-08-03T09:24:05.643Z,26.00
2022-08-03T09:29:35.212Z,12.60
2022-08-03T09:35:06.525Z,25.67
2022-08-03T09:40:38.168Z,24.27
2022-08-03T09:46:08.523Z,17.75
2022-08-03T09:52:32.153Z,21.83
2022-08-03T09:57:30.821Z,21.13
2022-08-03T10:03:05.854Z,17.27
2022-08-03T10:08:36.396Z,13.00
2022-08-03T10:14:07.259Z,18.52
2022-08-03T10:19:36.541Z,22.38
2022-08-03T10:25:10.210Z,20.08
2022-08-03T10:30:42.537Z,10.18
2022-08-03T10:36:14.711Z,11.88
2022-08-03T10:41:48.194Z,20.17
2022-08-03T10:47:17.457Z,11.20
2022-08-03T10:52:57.674Z,10.80
2022-08-03T10:58:56.832Z,4.53
2022-08-03T11:04:27.314Z,8.32
2022-08-03T11:09:57.467Z,9.10
2022-08-03T11:15:34.925Z,22.25
2022-08-03T11:21:04.061Z,8.60
2022-08-03T11:26:33.053Z,15.32
2022-08-03T11:32:03.330Z,8.30
2022-08-03T11:37:33.441Z,10.35
2022-08-03T11:43:04.072Z,5.38
2022-08-03T11:48:40.241Z,5.07
2022-08-03T11:54:09.327Z,23.25
2022-08-03T11:59:39.186Z,3.60
2022-08-03T12:05:09.647Z,8.63
2022-08-03T12:10:40.408Z,7.35
2022-08-03T12:16:10.343Z,4.40
2022-08-03T12:21:56.723Z,6.53
2022-08-03T12:27:29.769Z,7.72
2022-08-03T12:32:59.032Z,8.38
2022-08-03T12:38:29.695Z,11.32
2022-08-03T12:44:00.198Z,7.75
2022-08-03T12:49:30.494Z,6.57
2022-08-03T12:55:02.143Z,14.57
2022-08-03T13:00:31.164Z,24.33
2022-08-03T13:06:01.243Z,20.42
2022-08-03T13:11:58.041Z,24.42
2022-08-03T13:17:22.066Z,10.82
2022-08-03T13:22:51.741Z,5.13
2022-08-03T13:28:22.436Z,10.30
2022-08-03T13:33:51.804Z,5.00
2022-08-03T13:39:21.254Z,4.47
2022-08-03T13:45:05.437Z,10.02
2022-08-03T13:50:37.567Z,4.10
2022-08-03T13:56:10.154Z,3.80
2022-08-03T14:01:54.792Z,11.02
2022-08-03T14:07:24.834Z,6.13
2022-08-03T14:12:54.112Z,10.65
2022-08-03T14:18:29.274Z,14.23
2022-08-03T14:24:03.121Z,14.43
2022-08-03T14:29:32.124Z,17.17
2022-08-03T14:35:02.917Z,13.40
2022-08-03T14:40:31.772Z,5.03
2022-08-03T14:46:01.182Z,8.57
2022-08-03T14:51:31.779Z,6.65
2022-08-03T14:57:00.953Z,10.10
2022-08-03T15:02:30.500Z,9.05
2022-08-03T15:08:01.927Z,11.52
2022-08-03T15:13:31.713Z,11.38
2022-08-03T15:19:01.515Z,13.82
2022-08-03T15:24:35.367Z,9.45
2022-08-03T15:30:09.912Z,6.50
2022-08-03T15:35:39.900Z,3.13
2022-08-03T15:41:13.715Z,4.28
2022-08-03T15:46:42.719Z,6.05
2022-08-03T15:52:11.952Z,5.80
2022-08-03T15:58:59.573Z,26.48
2022-08-03T16:03:34.469Z,9.18
2022-08-03T16:09:23.145Z,11.02
2022-08-03T16:14:55.446Z,13.40
2022-08-03T16:20:29.077Z,12.95
2022-08-03T16:26:06.222Z,32.15
2022-08-03T16:31:39.616Z,13.15
2022-08-03T16:37:38.110Z,14.90
2022-08-03T16:43:18.140Z,43.80
2022-08-03T16:48:49.047Z,17.13
2022-08-03T16:54:18.780Z,20.92
2022-08-03T16:59:50.010Z,30.88
2022-08-03T17:05:21.634Z,30.02
2022-08-03T17:10:52.822Z,21.17
2022-08-03T17:16:21.911Z,22.52
2022-08-03T17:22:01.435Z,17.13
2022-08-03T17:28:48.702Z,8.40
2022-08-03T17:33:22.597Z,10.80
2022-08-03T17:38:54.941Z,20.55
2022-08-03T17:44:31.049Z,15.90
2022-08-03T17:50:24.676Z,13.27
2022-08-03T17:56:38.540Z,12.70
2022-08-03T18:02:30.299Z,11.98
2022-08-03T18:08:06.821Z,11.25
2022-08-03T18:13:42.232Z,37.90
2022-08-03T18:20:03.428Z,38.10
2022-08-03T18:25:15.147Z,25.95
2022-08-03T18:30:53.955Z,26.88
2022-08-03T18:36:30.299Z,29.50
2022-08-03T18:42:02.645Z,25.92
2022-08-03T18:47:55.425Z,15.32
2022-08-03T18:54:02.364Z,10.70
2022-08-03T18:59:30.561Z,9.68
2022-08-03T19:05:06.556Z,12.63
2022-08-03T19:10:39.121Z,9.32
2022-08-03T19:16:13.372Z,9.90
2022-08-03T19:21:49.942Z,8.05
2022-08-03T19:33:12.920Z,10.35
2022-08-03T19:38:44.059Z,7.78
2022-08-03T19:44:20.498Z,8.45
2022-08-03T19:50:06.201Z,8.45
2022-08-03T19:55:48.973Z,8.32
2022-08-03T20:01:21.563Z,11.70
2022-08-03T20:06:52.166Z,7.90
2022-08-03T20:18:14.754Z,8.77
2022-08-03T20:30:06.098Z,7.82
2022-08-03T20:35:31.825Z,11.25
2022-08-03T20:41:00.549Z,6.65
2022-08-03T20:46:46.445Z,7.75
2022-08-03T20:52:20.252Z,10.05
2022-08-03T20:57:56.622Z,6.85
2022-08-03T21:03:40.866Z,6.38
2022-08-03T21:09:20.758Z,6.13
2022-08-03T21:13:03.678Z,15.52
2022-08-03T21:13:06.785Z,7.60
2022-08-03T21:13:12.763Z,9.98
2022-08-03T21:15:00.274Z,8.45
2022-08-03T21:20:34.735Z,8.80
2022-08-03T21:26:04.243Z,10.23
2022-08-03T21:31:33.836Z,11.32
2022-08-03T21:37:04.260Z,9.90
2022-08-03T21:42:33.822Z,10.93
2022-08-03T21:48:04.941Z,11.20
2022-08-03T21:54:02.216Z,17.23
2022-08-03T21:59:26.842Z,14.32
2022-08-03T22:04:57.467Z,10.45
2022-08-03T22:10:28.816Z,11.05
2022-08-03T22:15:58.694Z,12.02
2022-08-03T22:21:36.190Z,11.82
2022-08-03T22:27:24.977Z,14.90
2022-08-03T22:32:56.201Z,14.57
2022-08-03T22:38:28.109Z,11.88
2022-08-03T22:43:59.655Z,12.52
2022-08-03T22:49:34.662Z,11.52
2022-08-03T22:55:05.127Z,11.40
2022-08-03T23:00:35.132Z,13.35
2022-08-03T23:06:04.666Z,11.77
2022-08-03T23:11:37.957Z,12.90
2022-08-03T23:17:15.368Z,12.82
2022-08-03T23:22:45.648Z,12.27
2022-08-03T23:28:17.336Z,13.18
2022-08-03T23:34:16.392Z,11.25
2022-08-03T23:39:48.158Z,13.33
2022-08-03T23:45:19.498Z,15.27
2022-08-03T23:50:58.423Z,13.07
2022-08-03T23:56:39.360Z,21.95
